Time;durP1;ratioP1;P1;durP2;ratioP2;P2;SDS_P1;SDS_P2;PMS_P1;PMS_P2;Temp;Humidity;BMP_temperature;BMP_pressure;BME280_temperature;BME280_humidity;BME280_pressure;Samples;Min_cycle;Max_cycle;Signal;HPM_P1;HPM_P2
2022/05/09 00:01:25;;;;;;;50.30;23.00;;;;;;;;;;10077374;29;20076;-68
2022/05/09 00:06:28;;;;;;;47.07;23.47;;;;;;;;;;10077076;29;20045;-68
2022/05/09 00:11:30;;;;;;;42.75;22.38;;;;;;;;;;10077173;29;20213;-68
2022/05/09 00:16:34;;;;;;;42.40;21.65;;;;;;;;;;10076961;29;20049;-67
2022/05/09 00:21:39;;;;;;;40.45;21.58;;;;;;;;;;10075883;29;20060;-66
2022/05/09 00:26:41;;;;;;;46.30;21.10;;;;;;;;;;10075299;29;20053;-66
2022/05/09 00:31:48;;;;;;;39.90;19.50;;;;;;;;;;10076475;29;20057;-66
2022/05/09 00:36:55;;;;;;;44.95;20.45;;;;;;;;;;10089453;29;20064;-67
2022/05/09 00:42:07;;;;;;;38.67;19.48;;;;;;;;;;10124761;29;20045;-67
2022/05/09 00:47:12;;;;;;;33.72;18.75;;;;;;;;;;10112951;29;20063;-68
2022/05/09 00:52:20;;;;;;;32.55;18.08;;;;;;;;;;10099482;29;20109;-67
2022/05/09 00:57:27;;;;;;;33.50;17.80;;;;;;;;;;10075354;29;20218;-67
2022/05/09 01:02:32;;;;;;;34.97;17.95;;;;;;;;;;10074268;29;20064;-68
2022/05/09 01:07:34;;;;;;;28.10;15.88;;;;;;;;;;10074031;29;20061;-68
2022/05/09 01:12:39;;;;;;;33.17;16.23;;;;;;;;;;10074835;29;20052;-68
2022/05/09 01:17:45;;;;;;;33.03;15.50;;;;;;;;;;10075712;29;20348;-68
2022/05/09 01:22:49;;;;;;;22.52;13.48;;;;;;;;;;10075294;29;20045;-68
2022/05/09 01:27:51;;;;;;;28.23;14.40;;;;;;;;;;10036179;29;20049;-67
2022/05/09 01:32:57;;;;;;;25.58;12.75;;;;;;;;;;10074885;29;20094;-67
2022/05/09 01:38:10;;;;;;;19.92;11.57;;;;;;;;;;10096048;29;20076;-67
2022/05/09 01:43:13;;;;;;;21.80;11.63;;;;;;;;;;10098545;29;20056;-67
2022/05/09 01:53:37;;;;;;;20.15;10.57;;;;;;;;;;10121475;29;20053;-67
2022/05/09 01:58:39;;;;;;;20.70;10.38;;;;;;;;;;10098561;29;20065;-67
2022/05/09 02:03:41;;;;;;;21.75;9.98;;;;;;;;;;10081666;29;20102;-68
2022/05/09 02:08:46;;;;;;;18.33;9.85;;;;;;;;;;10081893;29;20045;-67
2022/05/09 02:13:48;;;;;;;15.77;9.37;;;;;;;;;;10104860;29;20052;-68
2022/05/09 02:18:50;;;;;;;19.33;8.57;;;;;;;;;;10120856;29;20075;-67
2022/05/09 02:23:54;;;;;;;18.13;8.73;;;;;;;;;;10086536;29;20094;-66
2022/05/09 02:28:56;;;;;;;17.60;8.57;;;;;;;;;;10107613;29;20041;-66
2022/05/09 02:33:58;;;;;;;13.90;8.05;;;;;;;;;;10089706;29;20237;-67
2022/05/09 02:39:02;;;;;;;15.98;8.23;;;;;;;;;;10080913;29;20105;-67
2022/05/09 02:44:05;;;;;;;14.48;7.68;;;;;;;;;;10078487;29;20057;-67
2022/05/09 02:49:08;;;;;;;13.55;7.35;;;;;;;;;;10110784;29;20057;-67
2022/05/09 02:54:11;;;;;;;15.48;7.45;;;;;;;;;;10119477;29;20340;-67
2022/05/09 02:59:14;;;;;;;11.75;7.05;;;;;;;;;;10116982;29;20263;-66
2022/05/09 03:09:37;;;;;;;15.63;7.22;;;;;;;;;;10080793;29;20285;-67
2022/05/09 03:14:39;;;;;;;12.55;6.95;;;;;;;;;;10079674;29;20049;-67
2022/05/09 03:19:42;;;;;;;10.23;6.22;;;;;;;;;;10092207;29;20247;-67
2022/05/09 03:24:46;;;;;;;8.88;6.25;;;;;;;;;;10118256;29;20053;-68
2022/05/09 03:29:48;;;;;;;8.75;5.85;;;;;;;;;;10100745;29;20046;-67
2022/05/09 03:34:50;;;;;;;8.10;5.72;;;;;;;;;;10093427;29;20102;-66
2022/05/09 03:39:54;;;;;;;12.32;5.95;;;;;;;;;;10110828;29;20054;-67
2022/05/09 03:44:56;;;;;;;9.82;5.75;;;;;;;;;;10078016;29;20278;-67
2022/05/09 03:49:59;;;;;;;14.43;5.63;;;;;;;;;;10078257;29;20057;-68
2022/05/09 03:55:02;;;;;;;12.20;5.70;;;;;;;;;;10081602;29;20053;-67
2022/05/09 04:00:08;;;;;;;7.68;4.78;;;;;;;;;;10076261;29;20061;-68
2022/05/09 04:05:15;;;;;;;5.70;4.30;;;;;;;;;;10091371;29;20045;-68
2022/05/09 04:10:22;;;;;;;7.53;4.50;;;;;;;;;;10078282;29;20352;-67
2022/05/09 04:20:44;;;;;;;7.10;4.20;;;;;;;;;;10077247;29;20065;-68
2022/05/09 04:25:49;;;;;;;8.57;4.50;;;;;;;;;;10077209;29;20101;-69
2022/05/09 04:30:52;;;;;;;6.65;3.25;;;;;;;;;;10077002;29;20049;-68
2022/05/09 04:35:57;;;;;;;6.88;3.53;;;;;;;;;;10075594;29;20069;-68
2022/05/09 04:41:02;;;;;;;7.47;2.92;;;;;;;;;;10076408;29;20062;-68
2022/05/09 04:46:06;;;;;;;5.90;2.95;;;;;;;;;;10089045;29;20045;-68
2022/05/09 04:51:09;;;;;;;11.85;2.40;;;;;;;;;;10075604;29;20049;-69
2022/05/09 04:56:13;;;;;;;8.63;2.58;;;;;;;;;;10076429;29;20061;-68
2022/05/09 05:01:16;;;;;;;5.93;2.63;;;;;;;;;;10075258;29;20069;-67
2022/05/09 05:06:19;;;;;;;4.47;2.35;;;;;;;;;;10075607;29;20054;-68
2022/05/09 05:11:22;;;;;;;6.63;2.30;;;;;;;;;;10076114;29;20253;-67
2022/05/09 05:16:59;;;;;;;3.03;2.10;;;;;;;;;;10107001;29;20053;-68
2022/05/09 05:21:47;;;;;;;4.90;1.90;;;;;;;;;;10104120;29;20061;-69
2022/05/09 05:26:52;;;;;;;6.78;2.03;;;;;;;;;;10112813;29;20044;-71
2022/05/09 05:31:54;;;;;;;2.67;1.90;;;;;;;;;;10113678;29;20057;-69
2022/05/09 05:36:56;;;;;;;3.55;2.13;;;;;;;;;;10112447;29;20313;-68
2022/05/09 05:42:00;;;;;;;9.52;2.10;;;;;;;;;;10103785;29;20111;-69
2022/05/09 05:47:06;;;;;;;7.75;1.83;;;;;;;;;;10095709;29;20049;-69
2022/05/09 05:52:11;;;;;;;4.75;2.00;;;;;;;;;;10074499;29;20088;-69
2022/05/09 05:57:21;;;;;;;8.30;2.00;;;;;;;;;;10093080;29;20053;-69
2022/05/09 06:02:25;;;;;;;3.88;2.03;;;;;;;;;;10113005;29;20076;-68
2022/05/09 06:07:27;;;;;;;8.25;1.98;;;;;;;;;;10076920;29;20057;-69
2022/05/09 06:12:31;;;;;;;4.53;1.90;;;;;;;;;;10102012;29;20052;-69
2022/05/09 06:17:34;;;;;;;3.35;1.80;;;;;;;;;;10098841;29;20136;-69
2022/05/09 06:22:41;;;;;;;5.55;1.85;;;;;;;;;;10079324;29;20113;-69
2022/05/09 06:27:44;;;;;;;3.38;1.95;;;;;;;;;;10110855;29;20044;-69
2022/05/09 06:32:47;;;;;;;3.72;1.63;;;;;;;;;;10120450;29;20316;-68
2022/05/09 06:37:50;;;;;;;3.17;1.60;;;;;;;;;;10091628;29;20053;-69
2022/05/09 06:42:55;;;;;;;3.08;1.63;;;;;;;;;;10109694;29;20092;-69
2022/05/09 06:47:58;;;;;;;1.35;1.08;;;;;;;;;;10091415;29;20188;-69
2022/05/09 06:53:02;;;;;;;3.10;1.48;;;;;;;;;;10079445;29;20049;-68
2022/05/09 06:58:08;;;;;;;2.65;1.50;;;;;;;;;;10107236;29;20056;-68
2022/05/09 07:03:12;;;;;;;4.20;1.55;;;;;;;;;;10041029;29;20077;-69
2022/05/09 07:08:15;;;;;;;3.08;1.50;;;;;;;;;;10078424;29;20057;-70
2022/05/09 07:13:18;;;;;;;5.47;1.50;;;;;;;;;;10041249;29;20060;-69
2022/05/09 07:18:23;;;;;;;2.92;1.63;;;;;;;;;;10043518;29;20336;-68
2022/05/09 07:23:25;;;;;;;2.50;1.70;;;;;;;;;;10043136;29;20069;-69
2022/05/09 07:28:29;;;;;;;1.90;1.52;;;;;;;;;;10078345;29;20050;-69
2022/05/09 07:33:31;;;;;;;;;;;;;;;;;;10077779;29;20076;-69
2022/05/09 07:38:34;;;;;;;4.88;1.60;;;;;;;;;;10117837;29;19927;-69
2022/05/09 07:43:38;;;;;;;2.63;1.70;;;;;;;;;;10101008;29;20362;-69
2022/05/09 07:48:40;;;;;;;3.53;1.70;;;;;;;;;;10081448;29;20052;-69
2022/05/09 07:53:43;;;;;;;3.00;1.90;;;;;;;;;;10117197;29;20052;-70
2022/05/09 07:58:47;;;;;;;3.75;2.13;;;;;;;;;;10115555;29;20066;-68
2022/05/09 08:03:50;;;;;;;2.40;2.20;;;;;;;;;;10087457;29;20065;-69
2022/05/09 08:08:55;;;;;;;3.65;2.30;;;;;;;;;;10078442;29;20301;-69
2022/05/09 08:13:58;;;;;;;4.25;2.67;;;;;;;;;;10077501;29;20100;-69
2022/05/09 08:19:02;;;;;;;2.85;2.65;;;;;;;;;;10087058;29;20052;-69
2022/05/09 08:24:05;;;;;;;3.95;3.55;;;;;;;;;;10096527;29;20064;-69
2022/05/09 08:29:09;;;;;;;4.22;3.92;;;;;;;;;;10078137;29;20057;-69
2022/05/09 08:34:11;;;;;;;5.20;4.70;;;;;;;;;;10086356;29;20057;-69
2022/05/09 08:39:14;;;;;;;5.53;5.10;;;;;;;;;;10086727;29;20048;-69
2022/05/09 08:44:27;;;;;;;6.38;5.97;;;;;;;;;;10115767;29;20347;-68
2022/05/09 08:49:42;;;;;;;7.22;6.57;;;;;;;;;;10102829;29;20097;-69
2022/05/09 08:54:45;;;;;;;7.72;7.15;;;;;;;;;;10111876;29;20059;-69
2022/05/09 08:59:56;;;;;;;8.25;6.63;;;;;;;;;;10079747;29;19924;-69
2022/05/09 09:05:03;;;;;;;4.47;3.80;;;;;;;;;;10075555;29;20084;-69
2022/05/09 09:10:18;;;;;;;2.50;2.03;;;;;;;;;;10079525;29;20061;-69
2022/05/09 09:15:29;;;;;;;2.03;1.60;;;;;;;;;;10104735;29;20049;-69
2022/05/09 09:20:37;;;;;;;4.07;1.10;;;;;;;;;;10096882;29;20354;-69
2022/05/09 09:25:49;;;;;;;0.90;0.90;;;;;;;;;;10098757;29;20362;-69
2022/05/09 09:30:54;;;;;;;1.27;0.80;;;;;;;;;;10087823;29;20041;-68
2022/05/09 09:36:01;;;;;;;5.72;1.25;;;;;;;;;;10092522;29;20053;-68
2022/05/09 09:41:16;;;;;;;;;;;;;;;;;;10104783;29;20057;-68
2022/05/09 09:46:20;;;;;;;5.07;1.20;;;;;;;;;;10110808;29;19930;-68
2022/05/09 09:51:22;;;;;;;2.55;0.93;;;;;;;;;;10107378;29;20291;-68
2022/05/09 09:56:28;;;;;;;1.10;0.80;;;;;;;;;;10096805;29;20049;-68
2022/05/09 10:01:33;;;;;;;2.67;0.90;;;;;;;;;;10082448;29;20420;-68
2022/05/09 10:06:35;;;;;;;7.07;1.35;;;;;;;;;;10083732;29;20339;-69
2022/05/09 10:11:37;;;;;;;1.33;1.13;;;;;;;;;;10106912;29;20068;-68
2022/05/09 10:16:45;;;;;;;2.15;1.00;;;;;;;;;;10119980;29;20045;-67
2022/05/09 10:27:29;;;;;;;2.63;1.55;;;;;;;;;;10050096;29;20061;-68
2022/05/09 10:32:42;;;;;;;5.00;1.55;;;;;;;;;;10053847;29;20065;-69
2022/05/09 10:37:54;;;;;;;3.03;1.20;;;;;;;;;;10054214;29;20082;-70
2022/05/09 10:43:02;;;;;;;3.20;1.52;;;;;;;;;;10062360;29;20368;-67
2022/05/09 10:48:14;;;;;;;6.07;1.40;;;;;;;;;;10070909;29;20361;-68
2022/05/09 10:53:21;;;;;;;6.78;1.40;;;;;;;;;;10051472;29;20057;-68
2022/05/09 10:58:33;;;;;;;3.88;1.60;;;;;;;;;;10043500;29;20069;-69
2022/05/09 11:03:37;;;;;;;4.97;1.63;;;;;;;;;;10067517;29;20064;-69
2022/05/09 11:08:52;;;;;;;14.20;1.50;;;;;;;;;;10079432;29;20357;-68
2022/05/09 11:14:02;;;;;;;6.22;1.38;;;;;;;;;;10098362;29;20053;-68
2022/05/09 11:19:21;;;;;;;2.20;1.55;;;;;;;;;;10092725;29;20053;-68
2022/05/09 11:24:36;;;;;;;12.02;1.67;;;;;;;;;;10080850;29;20069;-68
2022/05/09 11:29:51;;;;;;;5.72;1.60;;;;;;;;;;10114962;29;20049;-68
2022/05/09 11:35:24;;;;;;;2.40;1.50;;;;;;;;;;10093194;29;20068;-67
2022/05/09 11:40:32;;;;;;;4.78;1.65;;;;;;;;;;10103105;29;20255;-69
2022/05/09 11:45:50;;;;;;;1.98;1.75;;;;;;;;;;10113891;29;20077;-68
2022/05/09 11:51:02;;;;;;;3.03;1.50;;;;;;;;;;10078923;29;20065;-68
2022/05/09 11:56:07;;;;;;;3.33;1.70;;;;;;;;;;10100630;29;20052;-68
2022/05/09 12:01:13;;;;;;;3.78;1.30;;;;;;;;;;10096649;29;20073;-68
2022/05/09 12:06:35;;;;;;;4.57;1.80;;;;;;;;;;10078170;29;20045;-68
2022/05/09 12:11:52;;;;;;;3.17;1.70;;;;;;;;;;10099510;29;20053;-68
2022/05/09 12:16:55;;;;;;;3.78;1.45;;;;;;;;;;10106048;29;20052;-68
2022/05/09 12:22:34;;;;;;;2.28;1.42;;;;;;;;;;10077193;29;20061;-68
2022/05/09 12:28:03;;;;;;;4.22;1.50;;;;;;;;;;10081044;29;20101;-67
2022/05/09 12:33:14;;;;;;;1.98;1.50;;;;;;;;;;10085879;29;20065;-68
2022/05/09 12:38:22;;;;;;;5.28;1.60;;;;;;;;;;10089420;29;20395;-68
2022/05/09 12:43:26;;;;;;;2.03;1.67;;;;;;;;;;10117593;29;20064;-68
2022/05/09 12:48:30;;;;;;;6.43;1.63;;;;;;;;;;10115841;29;20052;-68
2022/05/09 12:53:34;;;;;;;5.67;1.60;;;;;;;;;;10079058;29;20053;-68
2022/05/09 12:58:43;;;;;;;4.68;1.33;;;;;;;;;;10107992;29;20209;-68
2022/05/09 13:03:47;;;;;;;3.75;1.35;;;;;;;;;;10101681;29;20041;-68
2022/05/09 13:08:50;;;;;;;2.55;1.50;;;;;;;;;;10076781;29;20351;-68
2022/05/09 13:14:02;;;;;;;3.40;1.20;;;;;;;;;;10068217;29;20046;-68
2022/05/09 13:19:06;;;;;;;2.78;1.58;;;;;;;;;;10084960;29;20045;-67
2022/05/09 13:24:15;;;;;;;7.07;1.70;;;;;;;;;;10074906;29;20050;-68
2022/05/09 13:29:36;;;;;;;2.00;1.30;;;;;;;;;;10124166;29;20049;-69
2022/05/09 13:34:45;;;;;;;7.97;1.70;;;;;;;;;;10086926;29;20064;-68
2022/05/09 13:39:47;;;;;;;5.93;1.90;;;;;;;;;;10090066;29;20068;-69
2022/05/09 13:44:53;;;;;;;7.18;1.67;;;;;;;;;;10077785;29;20053;-68
2022/05/09 13:50:01;;;;;;;3.88;1.23;;;;;;;;;;10089697;29;20065;-69
2022/05/09 13:55:06;;;;;;;2.63;1.30;;;;;;;;;;10103446;29;20231;-73
2022/05/09 14:00:19;;;;;;;4.80;1.52;;;;;;;;;;10083029;29;20077;-68
2022/05/09 14:05:24;;;;;;;7.38;1.42;;;;;;;;;;10091412;29;20060;-70
2022/05/09 14:10:33;;;;;;;2.13;1.17;;;;;;;;;;10076781;29;20049;-65
2022/05/09 14:15:38;;;;;;;2.88;1.42;;;;;;;;;;10088116;29;20046;-65
2022/05/09 14:20:42;;;;;;;7.40;1.60;;;;;;;;;;10100372;29;20049;-66
2022/05/09 14:31:24;;;;;;;4.75;2.20;;;;;;;;;;10077349;29;20045;-67
2022/05/09 14:36:30;;;;;;;5.45;1.60;;;;;;;;;;10120862;29;20052;-66
2022/05/09 14:41:40;;;;;;;2.85;1.40;;;;;;;;;;10085750;29;20102;-67
2022/05/09 14:46:53;;;;;;;5.35;1.35;;;;;;;;;;10093297;29;20045;-67
2022/05/09 14:52:03;;;;;;;2.33;1.35;;;;;;;;;;10062964;29;20061;-68
2022/05/09 14:57:26;;;;;;;6.28;1.38;;;;;;;;;;10081018;29;20061;-68
2022/05/09 15:02:33;;;;;;;5.33;1.50;;;;;;;;;;10091074;29;20065;-65
2022/05/09 15:07:36;;;;;;;5.70;1.70;;;;;;;;;;10118801;29;20053;-68
2022/05/09 15:12:40;;;;;;;2.60;1.40;;;;;;;;;;10118390;29;20152;-67
2022/05/09 15:17:44;;;;;;;4.75;2.22;;;;;;;;;;10081082;29;20041;-67
2022/05/09 15:22:48;;;;;;;3.65;1.60;;;;;;;;;;10121539;29;20049;-71
2022/05/09 15:27:51;;;;;;;2.13;1.40;;;;;;;;;;10118757;29;20057;-69
2022/05/09 15:32:55;;;;;;;7.40;2.08;;;;;;;;;;10114027;29;20066;-68
2022/05/09 15:37:57;;;;;;;4.90;2.80;;;;;;;;;;10118905;29;20110;-69
2022/05/09 15:43:04;;;;;;;8.18;1.50;;;;;;;;;;10094299;29;20129;-68
2022/05/09 15:48:10;;;;;;;4.20;1.45;;;;;;;;;;10092723;29;20086;-68
2022/05/09 15:53:13;;;;;;;5.53;1.92;;;;;;;;;;10078867;29;20209;-66
2022/05/09 15:58:15;;;;;;;4.85;1.77;;;;;;;;;;10087629;29;20467;-68
2022/05/09 16:03:26;;;;;;;6.00;1.50;;;;;;;;;;10115416;29;20073;-68
2022/05/09 16:13:50;;;;;;;3.17;1.63;;;;;;;;;;10127092;29;20093;-68
2022/05/09 16:18:55;;;;;;;6.50;1.60;;;;;;;;;;10117734;29;20416;-70
2022/05/09 16:23:58;;;;;;;4.20;1.35;;;;;;;;;;10130682;29;20089;-67
2022/05/09 16:29:02;;;;;;;4.03;1.85;;;;;;;;;;10109811;29;20060;-65
2022/05/09 16:34:10;;;;;;;2.00;1.50;;;;;;;;;;10116788;29;20483;-68
2022/05/09 16:39:15;;;;;;;2.60;1.70;;;;;;;;;;10129244;29;20048;-66
2022/05/09 16:44:17;;;;;;;5.75;1.98;;;;;;;;;;10113583;29;20117;-66
2022/05/09 16:49:21;;;;;;;5.10;1.60;;;;;;;;;;10102896;29;20045;-65
2022/05/09 16:54:24;;;;;;;4.73;1.90;;;;;;;;;;10079561;29;20244;-67
2022/05/09 16:59:34;;;;;;;9.05;1.88;;;;;;;;;;10097048;29;20064;-66
2022/05/09 17:04:38;;;;;;;3.85;1.80;;;;;;;;;;10115596;29;20049;-67
2022/05/09 17:09:43;;;;;;;3.63;1.90;;;;;;;;;;10116666;29;20052;-69
2022/05/09 17:14:46;;;;;;;4.45;2.05;;;;;;;;;;10112374;29;20061;-69
2022/05/09 17:19:49;;;;;;;5.63;2.50;;;;;;;;;;10117062;29;20049;-68
2022/05/09 17:24:52;;;;;;;6.63;2.10;;;;;;;;;;10093842;29;20090;-66
2022/05/09 17:29:54;;;;;;;4.95;2.15;;;;;;;;;;10078839;29;20049;-66
2022/05/09 17:34:58;;;;;;;8.57;2.17;;;;;;;;;;10076572;29;20050;-67
2022/05/09 17:40:00;;;;;;;22.20;3.03;;;;;;;;;;10115376;29;20289;-67
2022/05/09 17:45:03;;;;;;;12.35;2.67;;;;;;;;;;10117727;29;20052;-74
2022/05/09 17:50:08;;;;;;;6.80;2.70;;;;;;;;;;10112170;29;20056;-67
2022/05/09 17:55:11;;;;;;;5.03;2.47;;;;;;;;;;10116133;29;20116;-67
2022/05/09 18:00:15;;;;;;;4.97;2.35;;;;;;;;;;10114261;29;20305;-69
2022/05/09 18:05:19;;;;;;;3.30;2.88;;;;;;;;;;10105759;29;20251;-68
2022/05/09 18:10:21;;;;;;;5.90;2.57;;;;;;;;;;10076637;29;20053;-68
2022/05/09 18:15:28;;;;;;;8.15;2.33;;;;;;;;;;10104146;29;20057;-67
2022/05/09 18:20:32;;;;;;;7.93;3.00;;;;;;;;;;10098086;29;20129;-69
2022/05/09 18:25:38;;;;;;;14.10;2.97;;;;;;;;;;10086305;29;20333;-67
2022/05/09 18:30:42;;;;;;;17.73;3.63;;;;;;;;;;10088583;29;20085;-68
2022/05/09 18:35:48;;;;;;;5.70;2.80;;;;;;;;;;10122757;29;20271;-69
2022/05/09 18:40:55;;;;;;;9.80;3.08;;;;;;;;;;10123052;29;20065;-66
2022/05/09 18:45:58;;;;;;;12.10;2.78;;;;;;;;;;10123569;29;20332;-69
2022/05/09 18:56:24;;;;;;;10.27;3.30;;;;;;;;;;10083755;29;20053;-69
2022/05/09 19:01:27;;;;;;;10.50;3.35;;;;;;;;;;10095238;29;20059;-67
2022/05/09 19:06:30;;;;;;;28.75;4.50;;;;;;;;;;10110431;29;20045;-69
2022/05/09 19:11:34;;;;;;;12.65;3.30;;;;;;;;;;10082065;29;20105;-68
2022/05/09 19:16:38;;;;;;;13.52;4.00;;;;;;;;;;10119199;29;20041;-67
2022/05/09 19:21:41;;;;;;;13.00;5.95;;;;;;;;;;10093870;29;20213;-68
2022/05/09 19:26:44;;;;;;;7.03;4.40;;;;;;;;;;10119126;29;20124;-64
2022/05/09 19:31:46;;;;;;;18.63;9.25;;;;;;;;;;10114038;29;20229;-67
2022/05/09 19:36:50;;;;;;;11.02;5.63;;;;;;;;;;10118166;29;20284;-66
2022/05/09 19:41:54;;;;;;;15.35;4.85;;;;;;;;;;10120752;29;20045;-65
2022/05/09 19:46:57;;;;;;;11.70;4.72;;;;;;;;;;10119666;29;20045;-67
2022/05/09 19:57:21;;;;;;;14.73;6.72;;;;;;;;;;10129319;29;20052;-67
2022/05/09 20:02:26;;;;;;;19.10;7.63;;;;;;;;;;10099009;29;20052;-68
2022/05/09 20:07:30;;;;;;;14.85;8.52;;;;;;;;;;10116257;29;20352;-66
2022/05/09 20:12:33;;;;;;;19.30;7.68;;;;;;;;;;10118497;29;20229;-67
2022/05/09 20:17:35;;;;;;;29.65;11.38;;;;;;;;;;10099843;29;20061;-66
2022/05/09 20:22:41;;;;;;;50.83;15.23;;;;;;;;;;10099448;29;20225;-67
2022/05/09 20:33:03;;;;;;;23.90;9.48;;;;;;;;;;10127730;29;20056;-66
2022/05/09 20:38:08;;;;;;;49.53;14.77;;;;;;;;;;10117564;29;20053;-65
2022/05/09 20:43:14;;;;;;;25.58;10.60;;;;;;;;;;10116671;29;20048;-66
2022/05/09 20:48:17;;;;;;;18.77;9.45;;;;;;;;;;10125091;29;20098;-66
2022/05/09 20:53:24;;;;;;;20.15;8.75;;;;;;;;;;10115768;29;20053;-66
2022/05/09 20:58:28;;;;;;;17.15;7.90;;;;;;;;;;10126355;29;20228;-66
2022/05/09 21:03:30;;;;;;;16.83;8.60;;;;;;;;;;10126046;29;20072;-66
2022/05/09 21:08:35;;;;;;;14.30;7.10;;;;;;;;;;10115509;29;20212;-67
2022/05/09 21:13:37;;;;;;;14.73;7.50;;;;;;;;;;10113166;29;20053;-67
2022/05/09 21:18:40;;;;;;;19.23;6.78;;;;;;;;;;10050164;29;20274;-65
2022/05/09 21:23:49;;;;;;;17.25;7.07;;;;;;;;;;10062447;29;20060;-65
2022/05/09 21:28:51;;;;;;;14.27;6.88;;;;;;;;;;10100237;29;20125;-66
2022/05/09 21:33:53;;;;;;;18.83;6.80;;;;;;;;;;10081688;29;20053;-66
2022/05/09 21:44:23;;;;;;;12.18;6.68;;;;;;;;;;10104060;29;20351;-66
2022/05/09 21:49:25;;;;;;;18.85;7.07;;;;;;;;;;10086528;29;20060;-67
2022/05/09 21:54:32;;;;;;;15.40;7.38;;;;;;;;;;10083037;29;20045;-67
2022/05/09 21:59:34;;;;;;;15.52;7.13;;;;;;;;;;10097706;29;20068;-66
2022/05/09 22:04:38;;;;;;;15.43;7.07;;;;;;;;;;10083174;29;20367;-65
2022/05/09 22:09:47;;;;;;;;;;;;;;;;;;10096797;29;20337;-66
2022/05/09 22:14:50;;;;;;;12.77;7.45;;;;;;;;;;10064867;29;20223;-65
2022/05/09 22:19:52;;;;;;;11.27;6.78;;;;;;;;;;10083293;29;20047;-66
2022/05/09 22:24:56;;;;;;;14.98;7.32;;;;;;;;;;10091404;29;20066;-65
2022/05/09 22:29:59;;;;;;;15.43;7.55;;;;;;;;;;10082606;29;20093;-66
2022/05/09 22:35:02;;;;;;;14.63;7.00;;;;;;;;;;10084900;29;20078;-66
2022/05/09 22:40:10;;;;;;;16.58;7.10;;;;;;;;;;10107574;29;20064;-67
2022/05/09 22:45:18;;;;;;;14.70;7.30;;;;;;;;;;10114642;29;20113;-64
2022/05/09 22:50:20;;;;;;;19.98;7.32;;;;;;;;;;10094598;29;20061;-65
2022/05/09 22:55:24;;;;;;;18.05;7.60;;;;;;;;;;10096653;29;20344;-66
2022/05/09 23:00:27;;;;;;;20.38;8.35;;;;;;;;;;10081522;29;20068;-67
2022/05/09 23:05:32;;;;;;;16.15;8.90;;;;;;;;;;10091082;29;20459;-65
2022/05/09 23:10:38;;;;;;;19.10;9.73;;;;;;;;;;10095539;29;20233;-66
2022/05/09 23:15:41;;;;;;;21.40;8.98;;;;;;;;;;10118946;29;20109;-65
2022/05/09 23:20:43;;;;;;;17.13;8.20;;;;;;;;;;10086438;29;20042;-66
2022/05/09 23:25:50;;;;;;;18.70;9.15;;;;;;;;;;10098863;29;20057;-66
2022/05/09 23:30:54;;;;;;;18.60;9.07;;;;;;;;;;10107518;29;20063;-65
2022/05/09 23:35:56;;;;;;;17.27;9.57;;;;;;;;;;10101746;29;20053;-65
2022/05/09 23:41:03;;;;;;;16.45;8.82;;;;;;;;;;10080816;29;20332;-65
2022/05/09 23:46:07;;;;;;;20.13;8.55;;;;;;;;;;10092038;29;20081;-67
2022/05/09 23:51:09;;;;;;;15.18;8.18;;;;;;;;;;10091865;29;20060;-65
2022/05/09 23:56:13;;;;;;;19.95;10.50;;;;;;;;;;10083265;29;20061;-65
